sensor_id;sensor_type;location;lat;lon;timestamp;pressure;altitude;pressure_sealevel;temperature;humidity
71915;BME280;60387;49.994;14.660;2023-03-23T00:00:53;97111.78;;;15.71;39.53
71915;BME280;60387;49.994;14.660;2023-03-23T00:03:27;97109.84;;;15.72;39.52
71915;BME280;60387;49.994;14.660;2023-03-23T00:06:00;97112.91;;;15.70;39.64
71915;BME280;60387;49.994;14.660;2023-03-23T00:08:38;97110.19;;;15.70;39.68
71915;BME280;60387;49.994;14.660;2023-03-23T00:11:17;97111.34;;;15.69;39.96
71915;BME280;60387;49.994;14.660;2023-03-23T00:13:51;97115.22;;;15.68;40.16
71915;BME280;60387;49.994;14.660;2023-03-23T00:16:25;97111.34;;;15.69;39.81
71915;BME280;60387;49.994;14.660;2023-03-23T00:19:09;97102.72;;;15.67;39.44
71915;BME280;60387;49.994;14.660;2023-03-23T00:21:43;97110.56;;;15.69;39.51
71915;BME280;60387;49.994;14.660;2023-03-23T00:24:17;97104.63;;;15.67;39.81
71915;BME280;60387;49.994;14.660;2023-03-23T00:26:51;97105.78;;;15.66;39.53
71915;BME280;60387;49.994;14.660;2023-03-23T00:29:24;97095.22;;;15.64;40.31
71915;BME280;60387;49.994;14.660;2023-03-23T00:31:57;97109.22;;;15.63;39.66
71915;BME280;60387;49.994;14.660;2023-03-23T00:34:31;97111.94;;;15.63;39.51
71915;BME280;60387;49.994;14.660;2023-03-23T00:37:04;97095.13;;;15.61;39.72
71915;BME280;60387;49.994;14.660;2023-03-23T00:39:38;97104.09;;;15.61;39.77
71915;BME280;60387;49.994;14.660;2023-03-23T00:42:13;97103.66;;;15.59;40.32
71915;BME280;60387;49.994;14.660;2023-03-23T00:44:47;97092.63;;;15.56;40.21
71915;BME280;60387;49.994;14.660;2023-03-23T00:47:20;97091.75;;;15.52;40.02
71915;BME280;60387;49.994;14.660;2023-03-23T00:49:53;97092.88;;;15.51;40.02
71915;BME280;60387;49.994;14.660;2023-03-23T00:52:27;97090.13;;;15.51;40.33
71915;BME280;60387;49.994;14.660;2023-03-23T00:55:00;97086.63;;;15.50;40.35
71915;BME280;60387;49.994;14.660;2023-03-23T00:57:33;97082.31;;;15.49;40.73
71915;BME280;60387;49.994;14.660;2023-03-23T01:00:07;97081.50;;;15.49;40.42
71915;BME280;60387;49.994;14.660;2023-03-23T01:02:41;97076.84;;;15.49;39.98
71915;BME280;60387;49.994;14.660;2023-03-23T01:05:14;97076.84;;;15.49;40.04
71915;BME280;60387;49.994;14.660;2023-03-23T01:07:47;97070.59;;;15.49;39.92
71915;BME280;60387;49.994;14.660;2023-03-23T01:10:20;97068.66;;;15.49;39.93
71915;BME280;60387;49.994;14.660;2023-03-23T01:12:54;97067.09;;;15.48;40.17
71915;BME280;60387;49.994;14.660;2023-03-23T01:15:28;97065.13;;;15.49;40.96
71915;BME280;60387;49.994;14.660;2023-03-23T01:18:02;97058.44;;;15.46;40.45
71915;BME280;60387;49.994;14.660;2023-03-23T01:20:37;97069.34;;;15.46;40.68
71915;BME280;60387;49.994;14.660;2023-03-23T01:23:10;97061.16;;;15.46;40.75
71915;BME280;60387;49.994;14.660;2023-03-23T01:25:43;97057.31;;;15.47;41.53
71915;BME280;60387;49.994;14.660;2023-03-23T01:28:17;97060.03;;;15.47;41.52
71915;BME280;60387;49.994;14.660;2023-03-23T01:30:50;97061.16;;;15.46;40.97
71915;BME280;60387;49.994;14.660;2023-03-23T01:33:23;97054.91;;;15.46;41.07
71915;BME280;60387;49.994;14.660;2023-03-23T01:35:57;97052.19;;;15.46;41.72
71915;BME280;60387;49.994;14.660;2023-03-23T01:38:32;97040.84;;;15.44;41.60
71915;BME280;60387;49.994;14.660;2023-03-23T01:41:05;97049.91;;;15.48;41.48
71915;BME280;60387;49.994;14.660;2023-03-23T01:46:32;97047.06;;;15.44;41.98
71915;BME280;60387;49.994;14.660;2023-03-23T01:49:09;97037.31;;;15.43;41.25
71915;BME280;60387;49.994;14.660;2023-03-23T01:51:53;97038.00;;;15.40;41.44
71915;BME280;60387;49.994;14.660;2023-03-23T01:54:28;97028.22;;;15.39;41.55
71915;BME280;60387;49.994;14.660;2023-03-23T01:57:13;97004.38;;;15.24;41.43
71915;BME280;60387;49.994;14.660;2023-03-23T01:59:50;97019.84;;;15.32;41.82
71915;BME280;60387;49.994;14.660;2023-03-23T02:02:25;97024.84;;;15.30;41.53
71915;BME280;60387;49.994;14.660;2023-03-23T02:05:02;97025.06;;;15.25;42.21
71915;BME280;60387;49.994;14.660;2023-03-23T02:07:40;97031.56;;;15.21;42.35
71915;BME280;60387;49.994;14.660;2023-03-23T02:10:14;97033.06;;;15.18;42.49
71915;BME280;60387;49.994;14.660;2023-03-23T02:12:47;97026.94;;;15.09;42.87
71915;BME280;60387;49.994;14.660;2023-03-23T02:15:21;97023.69;;;15.04;42.97
71915;BME280;60387;49.994;14.660;2023-03-23T02:18:04;97020.84;;;15.00;42.36
71915;BME280;60387;49.994;14.660;2023-03-23T02:26:42;97016.63;;;15.03;42.30
71915;BME280;60387;49.994;14.660;2023-03-23T02:35:04;97018.66;;;15.06;43.01
71915;BME280;60387;49.994;14.660;2023-03-23T02:37:46;97017.53;;;15.07;42.87
71915;BME280;60387;49.994;14.660;2023-03-23T02:40:30;97014.00;;;15.06;42.31
71915;BME280;60387;49.994;14.660;2023-03-23T02:43:10;97018.78;;;15.09;43.48
71915;BME280;60387;49.994;14.660;2023-03-23T02:45:44;97016.47;;;15.11;43.32
71915;BME280;60387;49.994;14.660;2023-03-23T02:48:20;97019.22;;;15.11;43.78
71915;BME280;60387;49.994;14.660;2023-03-23T02:50:55;97009.53;;;15.14;43.77
71915;BME280;60387;49.994;14.660;2023-03-23T02:53:31;97008.28;;;15.11;43.96
71915;BME280;60387;49.994;14.660;2023-03-23T02:56:08;97004.09;;;15.14;43.69
71915;BME280;60387;49.994;14.660;2023-03-23T02:58:46;97007.00;;;15.21;43.63
71915;BME280;60387;49.994;14.660;2023-03-23T03:04:05;96998.13;;;15.24;43.62
71915;BME280;60387;49.994;14.660;2023-03-23T03:07:02;96994.72;;;15.27;43.91
71915;BME280;60387;49.994;14.660;2023-03-23T03:09:51;96998.66;;;15.29;43.75
71915;BME280;60387;49.994;14.660;2023-03-23T03:15:23;97005.06;;;15.33;43.24
71915;BME280;60387;49.994;14.660;2023-03-23T03:20:48;97001.63;;;15.36;43.14
71915;BME280;60387;49.994;14.660;2023-03-23T03:23:22;97013.44;;;15.40;43.17
71915;BME280;60387;49.994;14.660;2023-03-23T03:25:57;97003.31;;;15.41;43.02
71915;BME280;60387;49.994;14.660;2023-03-23T03:28:32;97015.81;;;15.42;43.60
71915;BME280;60387;49.994;14.660;2023-03-23T03:31:06;97008.75;;;15.41;44.05
71915;BME280;60387;49.994;14.660;2023-03-23T03:33:39;97010.28;;;15.38;43.28
71915;BME280;60387;49.994;14.660;2023-03-23T03:36:26;97016.84;;;15.37;42.79
71915;BME280;60387;49.994;14.660;2023-03-23T03:39:04;97004.72;;;15.35;43.88
71915;BME280;60387;49.994;14.660;2023-03-23T03:41:38;97004.63;;;15.31;43.19
71915;BME280;60387;49.994;14.660;2023-03-23T03:44:12;97000.75;;;15.32;43.74
71915;BME280;60387;49.994;14.660;2023-03-23T03:46:45;97008.00;;;15.28;43.38
71915;BME280;60387;49.994;14.660;2023-03-23T03:49:18;97007.22;;;15.28;43.92
71915;BME280;60387;49.994;14.660;2023-03-23T03:51:52;97010.19;;;15.23;43.16
71915;BME280;60387;49.994;14.660;2023-03-23T03:54:25;97019.19;;;15.23;43.84
71915;BME280;60387;49.994;14.660;2023-03-23T03:56:59;97023.81;;;15.23;43.40
71915;BME280;60387;49.994;14.660;2023-03-23T03:59:32;97029.88;;;15.16;43.19
71915;BME280;60387;49.994;14.660;2023-03-23T04:02:05;97019.41;;;15.18;43.29
71915;BME280;60387;49.994;14.660;2023-03-23T04:04:39;97019.78;;;15.17;43.19
71915;BME280;60387;49.994;14.660;2023-03-23T04:07:12;97029.06;;;15.16;43.56
71915;BME280;60387;49.994;14.660;2023-03-23T04:09:46;97032.63;;;15.16;43.17
71915;BME280;60387;49.994;14.660;2023-03-23T04:12:19;97022.41;;;15.13;43.00
71915;BME280;60387;49.994;14.660;2023-03-23T04:14:53;97026.00;;;15.17;42.92
71915;BME280;60387;49.994;14.660;2023-03-23T04:17:26;97022.50;;;15.17;43.60
71915;BME280;60387;49.994;14.660;2023-03-23T04:19:59;97012.81;;;15.19;43.27
71915;BME280;60387;49.994;14.660;2023-03-23T04:22:33;97002.25;;;15.18;43.11
71915;BME280;60387;49.994;14.660;2023-03-23T04:25:06;97011.31;;;15.22;43.23
71915;BME280;60387;49.994;14.660;2023-03-23T04:27:40;97012.56;;;15.24;43.14
71915;BME280;60387;49.994;14.660;2023-03-23T04:30:13;97009.13;;;15.27;43.34
71915;BME280;60387;49.994;14.660;2023-03-23T04:32:48;97017.91;;;15.33;43.32
71915;BME280;60387;49.994;14.660;2023-03-23T04:35:23;97019.16;;;15.35;43.09
71915;BME280;60387;49.994;14.660;2023-03-23T04:37:57;97018.47;;;15.38;42.84
71915;BME280;60387;49.994;14.660;2023-03-23T04:40:30;97018.47;;;15.38;43.18
71915;BME280;60387;49.994;14.660;2023-03-23T04:43:03;97031.50;;;15.45;43.18
71915;BME280;60387;49.994;14.660;2023-03-23T04:45:36;97022.94;;;15.46;43.14
71915;BME280;60387;49.994;14.660;2023-03-23T04:48:10;97026.13;;;15.48;42.92
71915;BME280;60387;49.994;14.660;2023-03-23T04:50:43;97021.13;;;15.50;42.96
71915;BME280;60387;49.994;14.660;2023-03-23T04:53:17;97012.59;;;15.52;42.83
71915;BME280;60387;49.994;14.660;2023-03-23T04:55:50;97011.78;;;15.51;43.13
71915;BME280;60387;49.994;14.660;2023-03-23T04:58:24;97014.28;;;15.56;42.99
71915;BME280;60387;49.994;14.660;2023-03-23T05:00:57;97012.94;;;15.50;43.00
71915;BME280;60387;49.994;14.660;2023-03-23T05:03:30;97023.69;;;15.59;42.79
71915;BME280;60387;49.994;14.660;2023-03-23T05:06:04;97014.38;;;15.60;42.84
71915;BME280;60387;49.994;14.660;2023-03-23T05:08:37;97014.44;;;15.63;42.84
71915;BME280;60387;49.994;14.660;2023-03-23T05:11:11;97014.00;;;15.61;42.91
71915;BME280;60387;49.994;14.660;2023-03-23T05:13:44;97005.38;;;15.59;42.75
71915;BME280;60387;49.994;14.660;2023-03-23T05:16:17;97015.56;;;15.62;42.94
71915;BME280;60387;49.994;14.660;2023-03-23T05:18:50;97012.50;;;15.64;42.70
71915;BME280;60387;49.994;14.660;2023-03-23T05:21:24;97020.69;;;15.64;43.12
71915;BME280;60387;49.994;14.660;2023-03-23T05:23:57;97025.09;;;15.68;42.65
71915;BME280;60387;49.994;14.660;2023-03-23T05:26:30;97021.66;;;15.71;42.51
71915;BME280;60387;49.994;14.660;2023-03-23T05:29:03;97029.53;;;15.73;42.36
71915;BME280;60387;49.994;14.660;2023-03-23T05:31:37;97025.41;;;15.79;42.20
71915;BME280;60387;49.994;14.660;2023-03-23T05:34:10;97028.31;;;15.86;42.18
71915;BME280;60387;49.994;14.660;2023-03-23T05:36:43;97031.19;;;15.93;41.68
71915;BME280;60387;49.994;14.660;2023-03-23T05:39:16;97034.50;;;15.98;41.14
71915;BME280;60387;49.994;14.660;2023-03-23T05:41:50;97038.69;;;16.11;41.05
71915;BME280;60387;49.994;14.660;2023-03-23T05:44:24;97037.38;;;16.21;40.69
71915;BME280;60387;49.994;14.660;2023-03-23T05:46:57;97029.88;;;16.33;40.28
71915;BME280;60387;49.994;14.660;2023-03-23T05:49:30;97023.81;;;16.39;40.35
71915;BME280;60387;49.994;14.660;2023-03-23T05:52:04;97021.78;;;16.52;40.19
71915;BME280;60387;49.994;14.660;2023-03-23T05:54:37;96995.59;;;16.51;39.65
71915;BME280;60387;49.994;14.660;2023-03-23T05:57:11;97021.22;;;16.62;40.01
71915;BME280;60387;49.994;14.660;2023-03-23T05:59:44;97014.53;;;16.78;39.50
71915;BME280;60387;49.994;14.660;2023-03-23T06:02:17;97025.63;;;16.85;39.65
71915;BME280;60387;49.994;14.660;2023-03-23T06:04:51;97026.22;;;16.94;39.55
71915;BME280;60387;49.994;14.660;2023-03-23T06:07:24;97034.97;;;17.00;39.75
71915;BME280;60387;49.994;14.660;2023-03-23T06:09:58;97038.63;;;17.07;39.53
71915;BME280;60387;49.994;14.660;2023-03-23T06:12:31;97037.97;;;17.14;39.60
71915;BME280;60387;49.994;14.660;2023-03-23T06:15:06;97045.13;;;17.18;39.37
71915;BME280;60387;49.994;14.660;2023-03-23T06:17:39;97032.66;;;17.21;39.39
71915;BME280;60387;49.994;14.660;2023-03-23T06:20:13;97030.28;;;17.19;39.22
71915;BME280;60387;49.994;14.660;2023-03-23T06:22:46;97039.06;;;17.28;39.21
71915;BME280;60387;49.994;14.660;2023-03-23T06:25:19;97027.41;;;17.31;39.35
71915;BME280;60387;49.994;14.660;2023-03-23T06:27:53;97030.16;;;17.31;39.33
71915;BME280;60387;49.994;14.660;2023-03-23T06:30:26;97015.66;;;17.31;39.41
71915;BME280;60387;49.994;14.660;2023-03-23T06:32:59;97014.91;;;17.34;39.45
71915;BME280;60387;49.994;14.660;2023-03-23T06:35:33;97016.81;;;17.30;39.65
71915;BME280;60387;49.994;14.660;2023-03-23T06:38:06;97019.63;;;17.33;39.48
71915;BME280;60387;49.994;14.660;2023-03-23T06:40:39;97018.81;;;17.33;39.54
71915;BME280;60387;49.994;14.660;2023-03-23T06:43:12;97033.72;;;17.35;39.13
71915;BME280;60387;49.994;14.660;2023-03-23T06:45:46;97017.97;;;17.29;39.10
71915;BME280;60387;49.994;14.660;2023-03-23T06:48:19;97023.50;;;17.32;39.34
71915;BME280;60387;49.994;14.660;2023-03-23T06:50:52;97025.03;;;17.30;39.22
71915;BME280;60387;49.994;14.660;2023-03-23T06:53:26;97025.09;;;17.33;39.04
71915;BME280;60387;49.994;14.660;2023-03-23T06:55:59;97031.31;;;17.30;39.01
71915;BME280;60387;49.994;14.660;2023-03-23T06:58:33;97039.13;;;17.32;39.11
71915;BME280;60387;49.994;14.660;2023-03-23T07:01:06;97036.94;;;17.37;39.05
71915;BME280;60387;49.994;14.660;2023-03-23T07:03:39;97033.56;;;17.44;38.99
71915;BME280;60387;49.994;14.660;2023-03-23T07:06:12;97029.72;;;17.48;38.79
71915;BME280;60387;49.994;14.660;2023-03-23T07:08:46;97019.28;;;17.54;39.08
71915;BME280;60387;49.994;14.660;2023-03-23T07:11:19;97035.84;;;17.61;38.99
71915;BME280;60387;49.994;14.660;2023-03-23T07:13:52;97031.56;;;17.63;39.02
71915;BME280;60387;49.994;14.660;2023-03-23T07:16:26;97034.38;;;17.67;39.01
71915;BME280;60387;49.994;14.660;2023-03-23T07:18:59;97030.53;;;17.71;38.73
71915;BME280;60387;49.994;14.660;2023-03-23T07:21:33;97040.41;;;17.76;38.75
71915;BME280;60387;49.994;14.660;2023-03-23T07:24:09;97043.88;;;17.73;38.77
71915;BME280;60387;49.994;14.660;2023-03-23T07:26:43;97046.63;;;17.73;39.04
71915;BME280;60387;49.994;14.660;2023-03-23T07:29:16;97045.19;;;17.79;38.69
71915;BME280;60387;49.994;14.660;2023-03-23T07:31:49;97049.56;;;17.83;38.81
71915;BME280;60387;49.994;14.660;2023-03-23T07:34:22;97040.97;;;17.85;38.85
71915;BME280;60387;49.994;14.660;2023-03-23T07:36:56;97055.47;;;17.85;38.77
71915;BME280;60387;49.994;14.660;2023-03-23T07:39:29;97053.53;;;17.86;38.59
71915;BME280;60387;49.994;14.660;2023-03-23T07:42:02;97045.81;;;17.91;38.34
71915;BME280;60387;49.994;14.660;2023-03-23T07:44:36;97053.63;;;17.93;38.63
71915;BME280;60387;49.994;14.660;2023-03-23T07:47:09;97052.63;;;18.01;38.76
71915;BME280;60387;49.994;14.660;2023-03-23T07:49:42;97052.75;;;18.08;38.39
71915;BME280;60387;49.994;14.660;2023-03-23T07:52:15;97056.50;;;18.22;38.52
71915;BME280;60387;49.994;14.660;2023-03-23T07:54:49;97053.56;;;18.31;38.23
71915;BME280;60387;49.994;14.660;2023-03-23T07:57:22;97048.31;;;18.45;37.88
71915;BME280;60387;49.994;14.660;2023-03-23T07:59:56;97054.75;;;18.56;37.49
71915;BME280;60387;49.994;14.660;2023-03-23T08:02:29;97047.88;;;18.69;37.25
71915;BME280;60387;49.994;14.660;2023-03-23T08:05:03;97059.84;;;18.80;37.47
71915;BME280;60387;49.994;14.660;2023-03-23T08:07:36;97058.03;;;18.91;37.29
71915;BME280;60387;49.994;14.660;2023-03-23T08:10:11;97053.47;;;19.02;36.70
71915;BME280;60387;49.994;14.660;2023-03-23T08:12:45;97056.72;;;19.11;36.76
71915;BME280;60387;49.994;14.660;2023-03-23T08:15:18;97054.97;;;19.22;36.93
71915;BME280;60387;49.994;14.660;2023-03-23T08:17:52;97044.09;;;19.32;36.74
71915;BME280;60387;49.994;14.660;2023-03-23T08:20:25;97025.34;;;19.38;36.57
71915;BME280;60387;49.994;14.660;2023-03-23T08:22:59;97050.81;;;19.68;36.37
71915;BME280;60387;49.994;14.660;2023-03-23T08:25:32;97047.78;;;19.79;35.87
71915;BME280;60387;49.994;14.660;2023-03-23T08:28:05;97066.06;;;19.98;35.61
71915;BME280;60387;49.994;14.660;2023-03-23T08:30:38;97053.19;;;20.05;35.45
71915;BME280;60387;49.994;14.660;2023-03-23T08:33:12;97049.78;;;20.15;35.49
71915;BME280;60387;49.994;14.660;2023-03-23T08:35:56;97056.16;;;20.26;35.10
71915;BME280;60387;49.994;14.660;2023-03-23T08:38:30;97055.44;;;20.33;35.06
71915;BME280;60387;49.994;14.660;2023-03-23T08:41:05;97054.69;;;20.39;34.68
71915;BME280;60387;49.994;14.660;2023-03-23T08:43:38;97050.81;;;20.47;34.94
71915;BME280;60387;49.994;14.660;2023-03-23T08:46:12;97050.53;;;20.59;34.63
71915;BME280;60387;49.994;14.660;2023-03-23T08:48:46;97040.06;;;20.75;34.12
71915;BME280;60387;49.994;14.660;2023-03-23T08:51:19;97047.19;;;20.83;33.59
71915;BME280;60387;49.994;14.660;2023-03-23T08:53:53;97042.59;;;20.98;33.90
71915;BME280;60387;49.994;14.660;2023-03-23T08:56:26;97045.78;;;21.07;33.97
71915;BME280;60387;49.994;14.660;2023-03-23T08:58:59;97043.50;;;21.23;34.00
71915;BME280;60387;49.994;14.660;2023-03-23T09:01:32;97050.31;;;21.46;33.41
71915;BME280;60387;49.994;14.660;2023-03-23T09:04:06;97052.41;;;21.74;33.11
71915;BME280;60387;49.994;14.660;2023-03-23T09:06:39;97043.00;;;21.92;32.43
71915;BME280;60387;49.994;14.660;2023-03-23T09:09:12;97040.69;;;22.19;32.20
71915;BME280;60387;49.994;14.660;2023-03-23T09:11:46;97037.53;;;22.38;31.95
71915;BME280;60387;49.994;14.660;2023-03-23T09:14:19;97045.88;;;22.59;31.99
71915;BME280;60387;49.994;14.660;2023-03-23T09:16:52;97044.66;;;22.84;31.15
71915;BME280;60387;49.994;14.660;2023-03-23T09:19:26;97041.88;;;23.02;30.27
71915;BME280;60387;49.994;14.660;2023-03-23T09:22:00;97047.34;;;23.23;30.30
71915;BME280;60387;49.994;14.660;2023-03-23T09:24:34;97048.50;;;23.39;30.02
71915;BME280;60387;49.994;14.660;2023-03-23T09:27:07;97037.34;;;23.60;30.84
71915;BME280;60387;49.994;14.660;2023-03-23T09:29:40;97048.69;;;23.90;29.30
71915;BME280;60387;49.994;14.660;2023-03-23T09:32:13;97057.56;;;24.25;30.11
71915;BME280;60387;49.994;14.660;2023-03-23T09:34:47;97052.31;;;24.41;28.68
71915;BME280;60387;49.994;14.660;2023-03-23T09:37:20;97042.03;;;24.42;28.17
71915;BME280;60387;49.994;14.660;2023-03-23T09:39:53;97054.22;;;24.51;28.32
71915;BME280;60387;49.994;14.660;2023-03-23T09:42:48;97051.75;;;24.64;28.34
71915;BME280;60387;49.994;14.660;2023-03-23T09:51:40;97052.28;;;24.96;27.70
71915;BME280;60387;49.994;14.660;2023-03-23T09:55:04;97047.25;;;25.24;28.32
71915;BME280;60387;49.994;14.660;2023-03-23T09:57:40;97046.44;;;25.61;26.41
71915;BME280;60387;49.994;14.660;2023-03-23T10:02:52;97046.06;;;25.59;25.97
71915;BME280;60387;49.994;14.660;2023-03-23T10:05:34;97044.13;;;25.56;26.92
71915;BME280;60387;49.994;14.660;2023-03-23T10:08:27;97047.72;;;25.53;26.61
71915;BME280;60387;49.994;14.660;2023-03-23T10:14:20;97043.75;;;25.54;27.46
71915;BME280;60387;49.994;14.660;2023-03-23T10:17:14;97052.56;;;25.45;26.41
71915;BME280;60387;49.994;14.660;2023-03-23T10:19:55;97056.63;;;25.37;26.50
71915;BME280;60387;49.994;14.660;2023-03-23T10:22:39;97056.78;;;25.23;26.56
71915;BME280;60387;49.994;14.660;2023-03-23T10:25:19;97062.44;;;25.09;27.18
71915;BME280;60387;49.994;14.660;2023-03-23T10:28:04;97060.59;;;24.96;27.58
71915;BME280;60387;49.994;14.660;2023-03-23T10:30:44;97056.34;;;24.84;27.97
71915;BME280;60387;49.994;14.660;2023-03-23T10:33:38;97056.06;;;24.72;28.13
71915;BME280;60387;49.994;14.660;2023-03-23T10:38:51;97043.97;;;24.45;27.97
71915;BME280;60387;49.994;14.660;2023-03-23T10:41:27;97049.56;;;24.38;28.22
71915;BME280;60387;49.994;14.660;2023-03-23T10:44:00;97042.09;;;24.31;28.04
71915;BME280;60387;49.994;14.660;2023-03-23T10:49:12;97048.16;;;24.16;28.16
71915;BME280;60387;49.994;14.660;2023-03-23T10:51:56;97033.56;;;24.08;28.69
71915;BME280;60387;49.994;14.660;2023-03-23T10:54:39;97035.56;;;24.08;28.60
71915;BME280;60387;49.994;14.660;2023-03-23T10:57:28;97034.75;;;24.07;28.86
71915;BME280;60387;49.994;14.660;2023-03-23T11:00:14;97030.41;;;24.10;28.11
71915;BME280;60387;49.994;14.660;2023-03-23T11:03:06;97035.13;;;24.09;28.57
71915;BME280;60387;49.994;14.660;2023-03-23T11:05:48;97023.28;;;24.09;28.50
71915;BME280;60387;49.994;14.660;2023-03-23T11:08:25;97026.06;;;24.09;28.43
71915;BME280;60387;49.994;14.660;2023-03-23T11:11:21;97031.97;;;24.07;28.03
71915;BME280;60387;49.994;14.660;2023-03-23T11:14:15;97040.69;;;24.06;28.39
71915;BME280;60387;49.994;14.660;2023-03-23T11:16:51;97047.03;;;24.03;28.70
71915;BME280;60387;49.994;14.660;2023-03-23T11:24:40;97060.94;;;23.89;28.65
71915;BME280;60387;49.994;14.660;2023-03-23T11:27:15;97047.13;;;23.82;28.64
71915;BME280;60387;49.994;14.660;2023-03-23T11:29:53;97059.38;;;23.81;28.41
71915;BME280;60387;49.994;14.660;2023-03-23T11:32:28;97054.28;;;23.72;28.49
71915;BME280;60387;49.994;14.660;2023-03-23T11:35:05;97046.81;;;23.66;28.68
71915;BME280;60387;49.994;14.660;2023-03-23T11:37:45;97055.88;;;23.66;28.73
71915;BME280;60387;49.994;14.660;2023-03-23T11:40:23;97044.47;;;23.61;28.79
71915;BME280;60387;49.994;14.660;2023-03-23T11:43:13;97047.63;;;23.59;28.99
71915;BME280;60387;49.994;14.660;2023-03-23T11:51:08;97043.97;;;23.80;29.51
71915;BME280;60387;49.994;14.660;2023-03-23T11:53:53;97044.75;;;23.87;29.33
71915;BME280;60387;49.994;14.660;2023-03-23T11:56:37;97034.81;;;23.97;29.03
71915;BME280;60387;49.994;14.660;2023-03-23T11:59:16;97039.56;;;24.00;28.94
71915;BME280;60387;49.994;14.660;2023-03-23T12:01:54;97047.88;;;23.96;29.09
71915;BME280;60387;49.994;14.660;2023-03-23T12:10:29;97035.66;;;23.83;29.26
71915;BME280;60387;49.994;14.660;2023-03-23T12:19:52;97038.72;;;24.03;29.49
71915;BME280;60387;49.994;14.660;2023-03-23T12:34:18;97040.56;;;24.27;28.92
71915;BME280;60387;49.994;14.660;2023-03-23T12:40:02;97033.16;;;24.10;28.33
71915;BME280;60387;49.994;14.660;2023-03-23T12:46:30;97030.09;;;23.94;28.60
71915;BME280;60387;49.994;14.660;2023-03-23T12:48:40;97045.97;;;23.79;28.81
71915;BME280;60387;49.994;14.660;2023-03-23T12:51:32;97039.66;;;23.72;28.99
71915;BME280;60387;49.994;14.660;2023-03-23T12:57:33;97029.84;;;23.60;29.27
71915;BME280;60387;49.994;14.660;2023-03-23T13:00:18;97031.44;;;23.58;29.15
71915;BME280;60387;49.994;14.660;2023-03-23T13:03:22;97029.47;;;23.51;29.40
71915;BME280;60387;49.994;14.660;2023-03-23T13:06:07;97036.59;;;23.52;29.53
71915;BME280;60387;49.994;14.660;2023-03-23T13:11:33;97024.78;;;23.45;29.77
71915;BME280;60387;49.994;14.660;2023-03-23T13:20:05;97028.72;;;23.44;29.76
71915;BME280;60387;49.994;14.660;2023-03-23T13:22:53;97011.75;;;23.42;29.57
71915;BME280;60387;49.994;14.660;2023-03-23T13:28:18;97026.41;;;23.39;30.04
71915;BME280;60387;49.994;14.660;2023-03-23T13:33:35;97023.28;;;23.27;29.81
71915;BME280;60387;49.994;14.660;2023-03-23T13:36:11;97023.31;;;23.16;30.18
71915;BME280;60387;49.994;14.660;2023-03-23T13:38:47;97017.75;;;23.09;29.84
71915;BME280;60387;49.994;14.660;2023-03-23T13:41:22;97023.31;;;23.02;30.15
71915;BME280;60387;49.994;14.660;2023-03-23T13:44:22;97011.47;;;22.98;30.39
71915;BME280;60387;49.994;14.660;2023-03-23T13:47:04;97030.41;;;22.96;30.55
71915;BME280;60387;49.994;14.660;2023-03-23T13:49:47;97020.56;;;22.92;30.79
71915;BME280;60387;49.994;14.660;2023-03-23T13:55:20;97023.34;;;22.85;30.77
71915;BME280;60387;49.994;14.660;2023-03-23T14:03:27;97026.50;;;22.76;31.30
71915;BME280;60387;49.994;14.660;2023-03-23T14:06:12;97022.16;;;22.75;31.44
71915;BME280;60387;49.994;14.660;2023-03-23T14:08:53;97030.47;;;22.75;31.42
71915;BME280;60387;49.994;14.660;2023-03-23T14:11:29;97014.69;;;22.72;31.05
71915;BME280;60387;49.994;14.660;2023-03-23T14:14:06;97030.06;;;22.73;31.46
71915;BME280;60387;49.994;14.660;2023-03-23T14:16:41;97026.88;;;22.75;31.18
71915;BME280;60387;49.994;14.660;2023-03-23T14:19:28;97027.69;;;22.75;31.63
71915;BME280;60387;49.994;14.660;2023-03-23T14:22:02;97026.50;;;22.69;31.87
71915;BME280;60387;49.994;14.660;2023-03-23T14:24:40;97031.66;;;22.67;31.86
71915;BME280;60387;49.994;14.660;2023-03-23T14:27:20;97034.03;;;22.65;32.04
71915;BME280;60387;49.994;14.660;2023-03-23T14:29:58;97027.69;;;22.58;32.04
71915;BME280;60387;49.994;14.660;2023-03-23T14:32:32;97033.25;;;22.54;31.96
71915;BME280;60387;49.994;14.660;2023-03-23T14:35:12;97035.59;;;22.52;32.12
71915;BME280;60387;49.994;14.660;2023-03-23T14:37:46;97026.91;;;22.43;32.13
71915;BME280;60387;49.994;14.660;2023-03-23T14:40:20;97029.66;;;22.40;32.28
71915;BME280;60387;49.994;14.660;2023-03-23T14:42:54;97032.81;;;22.35;32.84
71915;BME280;60387;49.994;14.660;2023-03-23T14:45:27;97015.44;;;22.27;33.48
71915;BME280;60387;49.994;14.660;2023-03-23T14:48:02;97022.56;;;22.21;33.32
71915;BME280;60387;49.994;14.660;2023-03-23T14:50:41;97021.75;;;22.17;33.17
71915;BME280;60387;49.994;14.660;2023-03-23T14:53:39;97023.72;;;22.13;33.00
71915;BME280;60387;49.994;14.660;2023-03-23T14:56:15;97029.63;;;22.08;33.70
71915;BME280;60387;49.994;14.660;2023-03-23T14:58:52;97017.00;;;22.00;33.50
71915;BME280;60387;49.994;14.660;2023-03-23T15:01:30;97016.59;;;21.91;33.57
71915;BME280;60387;49.994;14.660;2023-03-23T15:04:21;97022.09;;;21.91;34.03
71915;BME280;60387;49.994;14.660;2023-03-23T15:07:01;97015.00;;;21.87;34.17
71915;BME280;60387;49.994;14.660;2023-03-23T15:09:39;97024.84;;;21.84;34.30
71915;BME280;60387;49.994;14.660;2023-03-23T15:12:24;97023.28;;;21.83;34.30
71915;BME280;60387;49.994;14.660;2023-03-23T15:15:02;97028.78;;;21.87;34.29
71915;BME280;60387;49.994;14.660;2023-03-23T15:17:37;97019.34;;;21.88;33.87
71915;BME280;60387;49.994;14.660;2023-03-23T15:22:56;97024.09;;;21.94;33.83
71915;BME280;60387;49.994;14.660;2023-03-23T15:25:32;97023.69;;;21.99;34.14
71915;BME280;60387;49.994;14.660;2023-03-23T15:28:20;97017.00;;;22.04;34.58